createdAt,value
2022-11-08T00:01:19.000Z,96
2022-11-08T00:02:46.000Z,97
2022-11-08T00:04:52.000Z,97
2022-11-08T00:06:18.000Z,97
2022-11-08T00:08:25.000Z,97
2022-11-08T00:09:51.000Z,98
2022-11-08T00:11:57.000Z,97
2022-11-08T00:13:24.000Z,97
2022-11-08T00:15:30.000Z,97
2022-11-08T00:16:56.000Z,97
2022-11-08T00:19:02.000Z,98
2022-11-08T00:20:29.000Z,98
2022-11-08T00:22:35.000Z,98
2022-11-08T00:24:02.000Z,97
2022-11-08T00:26:08.000Z,97
2022-11-08T00:28:59.000Z,97
2022-11-08T00:30:25.000Z,97
2022-11-08T00:32:32.000Z,97
2022-11-08T00:33:58.000Z,97
2022-11-08T00:36:04.000Z,98
2022-11-08T00:37:31.000Z,98
2022-11-08T00:39:37.000Z,97
2022-11-08T00:41:03.000Z,96
2022-11-08T00:43:09.000Z,97
2022-11-08T00:44:36.000Z,96
2022-11-08T00:46:42.000Z,96
2022-11-08T00:48:08.000Z,96
2022-11-08T00:50:15.000Z,96
2022-11-08T00:51:41.000Z,97
2022-11-08T00:53:47.000Z,97
2022-11-08T00:55:14.000Z,97
2022-11-08T00:57:20.000Z,97
2022-11-08T00:59:07.000Z,98
2022-11-08T01:01:13.000Z,97
2022-11-08T01:02:40.000Z,97
2022-11-08T01:04:46.000Z,98
2022-11-08T01:07:37.000Z,98
2022-11-08T01:09:03.000Z,97
2022-11-08T01:11:10.000Z,98
2022-11-08T01:12:36.000Z,98
2022-11-08T01:14:42.000Z,97
2022-11-08T01:16:09.000Z,97
2022-11-08T01:18:15.000Z,97
2022-11-08T01:19:42.000Z,97
2022-11-08T01:21:48.000Z,97
2022-11-08T01:23:15.000Z,97
2022-11-08T01:25:21.000Z,96
2022-11-08T01:26:47.000Z,97
2022-11-08T01:28:53.000Z,97
2022-11-08T01:30:20.000Z,97
2022-11-08T01:32:26.000Z,97
2022-11-08T01:33:52.000Z,97
2022-11-08T01:35:59.000Z,97
2022-11-08T01:37:25.000Z,98
2022-11-08T01:39:31.000Z,98
2022-11-08T01:40:58.000Z,97
2022-11-08T01:43:04.000Z,97
2022-11-08T01:45:55.000Z,98
2022-11-08T01:47:21.000Z,98
2022-11-08T01:49:27.000Z,98
2022-11-08T01:50:54.000Z,97
2022-11-08T01:53:00.000Z,98
2022-11-08T01:54:26.000Z,98
2022-11-08T01:56:33.000Z,97
2022-11-08T01:57:59.000Z,97
2022-11-08T02:00:05.000Z,97
2022-11-08T02:01:32.000Z,97
2022-11-08T02:03:38.000Z,98
2022-11-08T02:05:05.000Z,98
2022-11-08T02:07:11.000Z,97
2022-11-08T02:08:37.000Z,97
2022-11-08T02:10:43.000Z,98
2022-11-08T02:12:10.000Z,98
2022-11-08T02:14:16.000Z,98
2022-11-08T02:15:42.000Z,99
2022-11-08T02:17:48.000Z,99
2022-11-08T02:19:15.000Z,99
2022-11-08T02:21:21.000Z,99
2022-11-08T02:24:13.000Z,99
2022-11-08T02:25:39.000Z,99
2022-11-08T02:27:45.000Z,99
2022-11-08T02:29:12.000Z,99
2022-11-08T02:31:18.000Z,99
2022-11-08T02:32:44.000Z,99
2022-11-08T02:34:50.000Z,99
2022-11-08T02:36:17.000Z,99
2022-11-08T02:38:23.000Z,100
2022-11-08T02:39:50.000Z,100
2022-11-08T02:41:56.000Z,99
2022-11-08T02:43:22.000Z,99
2022-11-08T02:45:28.000Z,99
2022-11-08T02:46:55.000Z,99
2022-11-08T02:49:01.000Z,99
2022-11-08T02:50:27.000Z,99
2022-11-08T02:52:33.000Z,99
2022-11-08T02:54:00.000Z,99
2022-11-08T02:56:06.000Z,99
2022-11-08T02:57:33.000Z,99
2022-11-08T02:59:39.000Z,99
2022-11-08T03:02:30.000Z,99
2022-11-08T03:03:57.000Z,99
2022-11-08T03:06:03.000Z,99
2022-11-08T03:07:29.000Z,99
2022-11-08T03:09:35.000Z,99
2022-11-08T03:11:02.000Z,99
2022-11-08T03:13:08.000Z,99
2022-11-08T03:14:34.000Z,98
2022-11-08T03:16:40.000Z,98
2022-11-08T03:18:07.000Z,98
2022-11-08T03:20:13.000Z,97
2022-11-08T03:21:40.000Z,97
2022-11-08T03:23:46.000Z,97
2022-11-08T03:25:12.000Z,97
2022-11-08T03:27:18.000Z,97
2022-11-08T03:28:45.000Z,97
2022-11-08T03:30:51.000Z,97
2022-11-08T03:32:17.000Z,96
2022-11-08T03:34:23.000Z,96
2022-11-08T03:35:50.000Z,96
2022-11-08T03:37:56.000Z,96
2022-11-08T03:40:48.000Z,97
2022-11-08T03:42:14.000Z,97
2022-11-08T03:44:20.000Z,97
2022-11-08T03:45:47.000Z,97
2022-11-08T03:47:53.000Z,97
2022-11-08T03:49:19.000Z,97
2022-11-08T03:51:25.000Z,97
2022-11-08T03:52:52.000Z,97
2022-11-08T03:54:58.000Z,97
2022-11-08T03:56:24.000Z,96
2022-11-08T03:58:30.000Z,96
2022-11-08T03:59:57.000Z,96
2022-11-08T04:02:03.000Z,96
2022-11-08T04:03:30.000Z,96
2022-11-08T04:05:36.000Z,96
2022-11-08T04:07:03.000Z,96
2022-11-08T04:09:09.000Z,96
2022-11-08T04:10:35.000Z,97
2022-11-08T04:12:41.000Z,97
2022-11-08T04:14:08.000Z,97
2022-11-08T04:16:14.000Z,97
2022-11-08T04:19:09.000Z,96
2022-11-08T04:20:35.000Z,97
2022-11-08T04:22:42.000Z,97
2022-11-08T04:24:08.000Z,96
2022-11-08T04:26:14.000Z,97
2022-11-08T04:27:41.000Z,97
2022-11-08T04:29:47.000Z,98
2022-11-08T04:31:13.000Z,97
2022-11-08T04:33:19.000Z,97
2022-11-08T04:34:46.000Z,97
2022-11-08T04:36:52.000Z,97
2022-11-08T04:38:18.000Z,97
2022-11-08T04:40:25.000Z,97
2022-11-08T04:41:52.000Z,97
2022-11-08T04:44:02.000Z,97
2022-11-08T04:45:28.000Z,97
2022-11-08T04:47:34.000Z,97
2022-11-08T04:49:08.000Z,97
2022-11-08T04:51:14.000Z,97
2022-11-08T04:52:41.000Z,97
2022-11-08T04:54:47.000Z,97
2022-11-08T04:57:38.000Z,97
2022-11-08T04:59:05.000Z,97
2022-11-08T05:01:17.000Z,97
2022-11-08T05:02:44.000Z,97
2022-11-08T05:04:50.000Z,98
2022-11-08T05:06:17.000Z,97
2022-11-08T05:08:23.000Z,97
2022-11-08T05:09:49.000Z,97
2022-11-08T05:11:55.000Z,97
2022-11-08T05:13:22.000Z,97
2022-11-08T05:15:28.000Z,97
2022-11-08T05:16:54.000Z,97
2022-11-08T05:19:01.000Z,97
2022-11-08T05:20:27.000Z,97
2022-11-08T05:22:33.000Z,98
2022-11-08T05:24:00.000Z,98
2022-11-08T05:26:06.000Z,97
2022-11-08T05:27:33.000Z,98
2022-11-08T05:29:39.000Z,98
2022-11-08T05:31:08.000Z,98
2022-11-08T05:33:14.000Z,98
2022-11-08T05:36:05.000Z,98
2022-11-08T05:37:32.000Z,97
2022-11-08T05:39:38.000Z,98
2022-11-08T05:41:05.000Z,98
2022-11-08T05:43:11.000Z,98
2022-11-08T05:44:37.000Z,98
2022-11-08T05:46:44.000Z,98
2022-11-08T05:48:10.000Z,98
2022-11-08T05:50:16.000Z,99
2022-11-08T05:51:46.000Z,100
2022-11-08T05:53:52.000Z,100
2022-11-08T05:55:18.000Z,100
2022-11-08T05:57:24.000Z,100
2022-11-08T05:58:51.000Z,100
2022-11-08T06:00:57.000Z,100
2022-11-08T06:02:23.000Z,100
2022-11-08T06:04:30.000Z,100
2022-11-08T06:05:56.000Z,100
2022-11-08T06:08:02.000Z,100
2022-11-08T06:09:29.000Z,100
2022-11-08T06:11:35.000Z,100
2022-11-08T06:14:26.000Z,99
2022-11-08T06:15:53.000Z,99
2022-11-08T06:17:59.000Z,99
2022-11-08T06:19:25.000Z,99
2022-11-08T06:21:31.000Z,99
2022-11-08T06:22:58.000Z,100
2022-11-08T06:25:04.000Z,100
2022-11-08T06:26:30.000Z,100
2022-11-08T06:28:37.000Z,100
2022-11-08T06:30:03.000Z,100
2022-11-08T06:32:10.000Z,100
2022-11-08T06:33:36.000Z,100
2022-11-08T06:35:42.000Z,100
2022-11-08T06:37:09.000Z,100
2022-11-08T06:39:15.000Z,99
2022-11-08T06:40:41.000Z,99
2022-11-08T06:42:48.000Z,99
2022-11-08T06:44:14.000Z,99
2022-11-08T06:46:20.000Z,99
2022-11-08T06:47:47.000Z,99
2022-11-08T06:49:53.000Z,99
2022-11-08T06:52:44.000Z,99
2022-11-08T06:54:11.000Z,99
2022-11-08T06:56:23.000Z,99
2022-11-08T06:57:50.000Z,98
2022-11-08T06:59:56.000Z,99
2022-11-08T07:01:22.000Z,99
2022-11-08T07:03:28.000Z,99
2022-11-08T07:04:55.000Z,99
2022-11-08T07:07:01.000Z,100
2022-11-08T07:08:28.000Z,99
2022-11-08T07:10:34.000Z,99
2022-11-08T07:12:00.000Z,100
2022-11-08T07:14:07.000Z,100
2022-11-08T07:15:33.000Z,99
2022-11-08T07:17:39.000Z,100
2022-11-08T07:19:06.000Z,100
2022-11-08T07:21:12.000Z,100
2022-11-08T07:22:38.000Z,100
2022-11-08T07:24:44.000Z,100
2022-11-08T07:26:11.000Z,100
2022-11-08T07:28:17.000Z,100
2022-11-08T07:31:08.000Z,100
2022-11-08T07:32:35.000Z,100
2022-11-08T07:34:41.000Z,100
2022-11-08T07:36:07.000Z,100
2022-11-08T07:38:13.000Z,100
2022-11-08T07:39:40.000Z,100
2022-11-08T07:41:46.000Z,100
2022-11-08T07:43:13.000Z,100
2022-11-08T07:45:19.000Z,100
2022-11-08T07:46:45.000Z,100
2022-11-08T07:48:52.000Z,99
2022-11-08T07:50:18.000Z,99
2022-11-08T07:52:24.000Z,98
2022-11-08T07:53:51.000Z,98
2022-11-08T07:55:57.000Z,98
2022-11-08T07:57:23.000Z,97
2022-11-08T07:59:30.000Z,98
2022-11-08T08:00:56.000Z,97
2022-11-08T08:03:02.000Z,97
2022-11-08T08:04:29.000Z,97
2022-11-08T08:06:35.000Z,97
2022-11-08T08:09:26.000Z,97
2022-11-08T08:10:53.000Z,97
2022-11-08T08:12:59.000Z,97
2022-11-08T08:14:25.000Z,96
2022-11-08T08:16:31.000Z,96
2022-11-08T08:17:58.000Z,96
2022-11-08T08:20:04.000Z,96
2022-11-08T08:21:30.000Z,96
2022-11-08T08:23:37.000Z,96
2022-11-08T08:25:03.000Z,96
2022-11-08T08:27:09.000Z,96
2022-11-08T08:28:36.000Z,96
2022-11-08T08:30:42.000Z,96
2022-11-08T08:32:08.000Z,96
2022-11-08T08:34:14.000Z,97
2022-11-08T08:35:41.000Z,96
2022-11-08T08:37:47.000Z,96
2022-11-08T08:39:14.000Z,96
2022-11-08T08:41:20.000Z,96
2022-11-08T08:42:46.000Z,96
2022-11-08T08:44:52.000Z,96
2022-11-08T08:47:44.000Z,96
2022-11-08T08:49:10.000Z,95
2022-11-08T08:51:16.000Z,95
2022-11-08T08:52:43.000Z,95
2022-11-08T08:54:49.000Z,95
2022-11-08T08:56:15.000Z,94
2022-11-08T08:58:21.000Z,94
2022-11-08T09:02:24.000Z,93
2022-11-08T09:03:51.000Z,94
2022-11-08T09:05:57.000Z,94
2022-11-08T09:07:24.000Z,93
2022-11-08T09:09:30.000Z,92
2022-11-08T09:10:56.000Z,93
2022-11-08T09:13:03.000Z,93
2022-11-08T09:14:29.000Z,93
2022-11-08T09:16:35.000Z,93
2022-11-08T09:18:02.000Z,93
2022-11-08T09:20:08.000Z,92
2022-11-08T09:21:34.000Z,91
2022-11-08T09:23:41.000Z,92
2022-11-08T09:26:32.000Z,91
2022-11-08T09:27:58.000Z,91
2022-11-08T09:30:04.000Z,90
2022-11-08T09:31:31.000Z,91
2022-11-08T09:33:37.000Z,90
2022-11-08T09:37:10.000Z,90
2022-11-08T09:38:36.000Z,89
2022-11-08T09:40:42.000Z,90
2022-11-08T09:42:09.000Z,89
2022-11-08T09:44:15.000Z,90
2022-11-08T09:45:41.000Z,88
2022-11-08T09:47:47.000Z,88
2022-11-08T09:49:19.000Z,88
2022-11-08T09:51:25.000Z,87
2022-11-08T09:52:52.000Z,87
2022-11-08T09:54:58.000Z,87
2022-11-08T09:56:24.000Z,87
2022-11-08T09:58:31.000Z,87
2022-11-08T09:59:57.000Z,86
2022-11-08T10:02:03.000Z,86
2022-11-08T10:04:55.000Z,84
2022-11-08T10:06:21.000Z,86
2022-11-08T10:08:27.000Z,85
2022-11-08T10:09:54.000Z,85
2022-11-08T10:12:00.000Z,85
2022-11-08T10:13:26.000Z,85
2022-11-08T10:15:32.000Z,85
2022-11-08T10:16:59.000Z,83
2022-11-08T10:19:05.000Z,84
2022-11-08T10:20:32.000Z,83
2022-11-08T10:22:38.000Z,83
2022-11-08T10:24:04.000Z,84
2022-11-08T10:26:10.000Z,83
2022-11-08T10:27:37.000Z,83
2022-11-08T10:29:43.000Z,84
2022-11-08T10:31:10.000Z,83
2022-11-08T10:33:16.000Z,83
2022-11-08T10:34:43.000Z,84
2022-11-08T10:36:49.000Z,84
2022-11-08T10:38:15.000Z,83
2022-11-08T10:40:21.000Z,83
2022-11-08T10:43:12.000Z,83
2022-11-08T10:44:39.000Z,82
2022-11-08T10:46:45.000Z,80
2022-11-08T10:48:11.000Z,82
2022-11-08T10:50:17.000Z,81
2022-11-08T10:51:44.000Z,79
2022-11-08T10:53:50.000Z,79
2022-11-08T10:55:17.000Z,79
2022-11-08T10:57:23.000Z,78
2022-11-08T10:58:49.000Z,79
2022-11-08T11:00:55.000Z,78
2022-11-08T11:02:22.000Z,77
2022-11-08T11:04:28.000Z,78
2022-11-08T11:05:55.000Z,76
2022-11-08T11:08:01.000Z,77
2022-11-08T11:09:28.000Z,72
2022-11-08T11:11:35.000Z,75
2022-11-08T11:13:01.000Z,74
2022-11-08T11:15:07.000Z,75
2022-11-08T11:16:34.000Z,75
2022-11-08T11:18:40.000Z,75
2022-11-08T11:21:31.000Z,73
2022-11-08T11:22:58.000Z,70
2022-11-08T11:25:04.000Z,71
2022-11-08T11:26:30.000Z,71
2022-11-08T11:28:36.000Z,74
2022-11-08T11:30:03.000Z,71
2022-11-08T11:32:15.000Z,73
2022-11-08T11:33:41.000Z,71
2022-11-08T11:35:47.000Z,71
2022-11-08T11:37:14.000Z,72
2022-11-08T11:39:20.000Z,69
2022-11-08T11:40:46.000Z,70
2022-11-08T11:42:52.000Z,66
2022-11-08T11:44:19.000Z,68
2022-11-08T11:46:25.000Z,67
2022-11-08T11:47:52.000Z,70
2022-11-08T11:49:58.000Z,69
2022-11-08T11:51:24.000Z,69
2022-11-08T11:53:30.000Z,68
2022-11-08T11:54:57.000Z,67
2022-11-08T11:57:03.000Z,68
2022-11-08T11:59:54.000Z,68
2022-11-08T12:01:20.000Z,70
2022-11-08T12:03:26.000Z,65
2022-11-08T12:04:53.000Z,64
2022-11-08T12:06:59.000Z,64
2022-11-08T12:08:31.000Z,66
2022-11-08T12:10:37.000Z,64
2022-11-08T12:12:04.000Z,62
2022-11-08T12:14:10.000Z,65
2022-11-08T12:15:36.000Z,65
2022-11-08T12:17:43.000Z,63
2022-11-08T12:19:09.000Z,62
2022-11-08T12:21:15.000Z,63
2022-11-08T12:22:42.000Z,62
2022-11-08T12:24:48.000Z,64
2022-11-08T12:26:14.000Z,64
2022-11-08T12:28:20.000Z,63
2022-11-08T12:29:47.000Z,64
2022-11-08T12:31:53.000Z,62
2022-11-08T12:33:20.000Z,65
2022-11-08T12:35:26.000Z,65
2022-11-08T12:38:17.000Z,64
2022-11-08T12:39:44.000Z,63
2022-11-08T12:41:50.000Z,64
2022-11-08T12:43:16.000Z,64
2022-11-08T12:45:22.000Z,61
2022-11-08T12:46:49.000Z,61
2022-11-08T12:48:55.000Z,64
2022-11-08T12:50:22.000Z,62
2022-11-08T12:52:28.000Z,62
2022-11-08T12:53:54.000Z,61
2022-11-08T12:56:00.000Z,61
2022-11-08T12:57:27.000Z,64
2022-11-08T12:59:33.000Z,66
2022-11-08T13:00:59.000Z,63
2022-11-08T13:03:06.000Z,63
2022-11-08T13:04:32.000Z,65
2022-11-08T13:06:38.000Z,63
2022-11-08T13:08:05.000Z,64
2022-11-08T13:10:11.000Z,62
2022-11-08T13:11:39.000Z,62
2022-11-08T13:13:45.000Z,63
2022-11-08T13:16:36.000Z,61
2022-11-08T13:18:02.000Z,62
2022-11-08T13:20:09.000Z,63
2022-11-08T13:21:35.000Z,61
2022-11-08T13:23:41.000Z,61
2022-11-08T13:25:08.000Z,63
2022-11-08T13:27:14.000Z,63
2022-11-08T13:28:40.000Z,63
2022-11-08T13:30:46.000Z,64
2022-11-08T13:32:13.000Z,66
2022-11-08T13:34:19.000Z,66
2022-11-08T13:35:46.000Z,64
2022-11-08T13:37:52.000Z,64
2022-11-08T13:39:18.000Z,65
2022-11-08T13:41:24.000Z,63
2022-11-08T13:42:51.000Z,66
2022-11-08T13:44:57.000Z,65
2022-11-08T13:46:23.000Z,64
2022-11-08T13:48:29.000Z,66
2022-11-08T13:49:56.000Z,66
2022-11-08T13:52:02.000Z,65
2022-11-08T13:54:54.000Z,66
2022-11-08T13:56:20.000Z,66
2022-11-08T13:58:26.000Z,65
2022-11-08T13:59:53.000Z,67
2022-11-08T14:01:59.000Z,67
2022-11-08T14:03:26.000Z,67
2022-11-08T14:05:32.000Z,66
2022-11-08T14:06:58.000Z,64
2022-11-08T14:09:04.000Z,67
2022-11-08T14:10:31.000Z,68
2022-11-08T14:12:37.000Z,68
2022-11-08T14:14:03.000Z,68
2022-11-08T14:16:10.000Z,68
2022-11-08T14:17:36.000Z,69
2022-11-08T14:19:42.000Z,68
2022-11-08T14:21:09.000Z,67
2022-11-08T14:23:15.000Z,65
2022-11-08T14:24:41.000Z,68
2022-11-08T14:26:48.000Z,66
2022-11-08T14:28:14.000Z,68
2022-11-08T14:30:20.000Z,68
2022-11-08T14:33:12.000Z,69
2022-11-08T14:34:38.000Z,69
2022-11-08T14:36:44.000Z,69
2022-11-08T14:38:11.000Z,69
2022-11-08T14:40:17.000Z,69
2022-11-08T14:41:44.000Z,70
2022-11-08T14:43:50.000Z,70
2022-11-08T14:45:17.000Z,71
2022-11-08T14:47:29.000Z,72
2022-11-08T14:48:55.000Z,72
2022-11-08T14:51:01.000Z,72
2022-11-08T14:52:28.000Z,73
2022-11-08T14:54:34.000Z,73
2022-11-08T14:56:00.000Z,74
2022-11-08T14:58:07.000Z,74
2022-11-08T14:59:33.000Z,75
2022-11-08T15:01:39.000Z,75
2022-11-08T15:03:06.000Z,75
2022-11-08T15:05:12.000Z,76
2022-11-08T15:06:39.000Z,76
2022-11-08T15:08:45.000Z,76
2022-11-08T15:11:36.000Z,77
2022-11-08T15:13:02.000Z,76
2022-11-08T15:15:09.000Z,77
2022-11-08T15:16:35.000Z,76
2022-11-08T15:18:41.000Z,77
2022-11-08T15:20:08.000Z,77
2022-11-08T15:22:14.000Z,77
2022-11-08T15:23:40.000Z,77
2022-11-08T15:25:46.000Z,78
2022-11-08T15:27:13.000Z,78
2022-11-08T15:29:19.000Z,78
2022-11-08T15:30:46.000Z,78
2022-11-08T15:32:52.000Z,78
2022-11-08T15:34:18.000Z,78
2022-11-08T15:36:24.000Z,79
2022-11-08T15:37:51.000Z,79
2022-11-08T15:39:57.000Z,79
2022-11-08T15:41:23.000Z,79
2022-11-08T15:43:30.000Z,79
2022-11-08T15:44:56.000Z,79
2022-11-08T15:47:02.000Z,80
2022-11-08T15:49:53.000Z,80
2022-11-08T15:51:19.000Z,80
2022-11-08T15:53:25.000Z,80
2022-11-08T15:54:52.000Z,80
2022-11-08T15:56:58.000Z,80
2022-11-08T15:58:25.000Z,80
2022-11-08T16:00:31.000Z,80
2022-11-08T16:01:57.000Z,81
2022-11-08T16:04:03.000Z,81
2022-11-08T16:05:30.000Z,81
2022-11-08T16:07:36.000Z,81
2022-11-08T16:09:03.000Z,81
2022-11-08T16:11:09.000Z,81
2022-11-08T16:12:35.000Z,82
2022-11-08T16:14:41.000Z,82
2022-11-08T16:16:08.000Z,82
2022-11-08T16:18:14.000Z,82
2022-11-08T16:19:41.000Z,82
2022-11-08T16:21:47.000Z,82
2022-11-08T16:23:14.000Z,82
2022-11-08T16:25:20.000Z,82
2022-11-08T16:28:11.000Z,83
2022-11-08T16:29:37.000Z,82
2022-11-08T16:31:43.000Z,83
2022-11-08T16:33:10.000Z,83
2022-11-08T16:35:16.000Z,83
2022-11-08T16:36:42.000Z,83
2022-11-08T16:38:48.000Z,83
2022-11-08T16:40:15.000Z,83
2022-11-08T16:42:21.000Z,83
2022-11-08T16:43:48.000Z,83
2022-11-08T16:45:54.000Z,83
2022-11-08T16:47:32.000Z,83
2022-11-08T16:49:38.000Z,84
2022-11-08T16:51:04.000Z,84
2022-11-08T16:53:10.000Z,84
2022-11-08T16:54:37.000Z,84
2022-11-08T16:56:43.000Z,84
2022-11-08T16:58:10.000Z,84
2022-11-08T17:00:16.000Z,84
2022-11-08T17:01:42.000Z,85
2022-11-08T17:03:49.000Z,84
2022-11-08T17:06:40.000Z,81
2022-11-08T17:08:06.000Z,81
2022-11-08T17:10:12.000Z,81
2022-11-08T17:11:39.000Z,81
2022-11-08T17:13:45.000Z,81
2022-11-08T17:15:12.000Z,81
2022-11-08T17:17:18.000Z,81
2022-11-08T17:18:44.000Z,81
2022-11-08T17:20:57.000Z,80
2022-11-08T17:22:42.000Z,80
2022-11-08T17:24:48.000Z,80
2022-11-08T17:26:15.000Z,79
2022-11-08T17:28:21.000Z,79
2022-11-08T17:29:47.000Z,79
2022-11-08T17:31:54.000Z,78
2022-11-08T17:33:20.000Z,78
2022-11-08T17:35:27.000Z,78
2022-11-08T17:36:53.000Z,78
2022-11-08T17:38:59.000Z,76
2022-11-08T17:40:26.000Z,77
2022-11-08T17:42:32.000Z,76
2022-11-08T17:45:28.000Z,75
2022-11-08T17:46:54.000Z,75
2022-11-08T17:49:00.000Z,75
2022-11-08T17:50:27.000Z,76
2022-11-08T17:52:33.000Z,75
2022-11-08T17:53:59.000Z,75
2022-11-08T17:56:06.000Z,75
2022-11-08T17:57:32.000Z,75
2022-11-08T17:59:38.000Z,75
2022-11-08T18:01:05.000Z,75
2022-11-08T18:03:11.000Z,75
2022-11-08T18:04:39.000Z,75
2022-11-08T18:06:45.000Z,75
2022-11-08T18:08:11.000Z,75
2022-11-08T18:10:18.000Z,74
2022-11-08T18:11:44.000Z,74
2022-11-08T18:13:50.000Z,74
2022-11-08T18:15:17.000Z,74
2022-11-08T18:17:23.000Z,75
2022-11-08T18:18:49.000Z,74
2022-11-08T18:20:55.000Z,74
2022-11-08T18:23:46.000Z,74
2022-11-08T18:25:13.000Z,74
2022-11-08T18:27:19.000Z,74
2022-11-08T18:28:45.000Z,73
2022-11-08T18:30:51.000Z,74
2022-11-08T18:32:18.000Z,74
2022-11-08T18:34:24.000Z,74
2022-11-08T18:35:50.000Z,74
2022-11-08T18:37:56.000Z,73
2022-11-08T18:39:23.000Z,74
2022-11-08T18:41:29.000Z,74
2022-11-08T18:42:56.000Z,74
2022-11-08T18:45:02.000Z,74
2022-11-08T18:46:28.000Z,75
2022-11-08T18:48:34.000Z,74
2022-11-08T18:50:01.000Z,74
2022-11-08T18:52:07.000Z,74
2022-11-08T18:53:33.000Z,74
2022-11-08T18:55:39.000Z,74
2022-11-08T18:57:06.000Z,74
2022-11-08T18:59:12.000Z,74
2022-11-08T19:02:03.000Z,74
2022-11-08T19:03:30.000Z,75
2022-11-08T19:05:36.000Z,75
2022-11-08T19:07:03.000Z,74
2022-11-08T19:09:09.000Z,74
2022-11-08T19:10:35.000Z,75
2022-11-08T19:12:41.000Z,75
2022-11-08T19:14:08.000Z,75
2022-11-08T19:16:14.000Z,75
2022-11-08T19:17:40.000Z,75
2022-11-08T19:19:47.000Z,75
2022-11-08T19:21:13.000Z,74
2022-11-08T19:23:19.000Z,75
2022-11-08T19:24:46.000Z,74
2022-11-08T19:26:52.000Z,75
2022-11-08T19:28:19.000Z,75
2022-11-08T19:30:25.000Z,74
2022-11-08T19:31:51.000Z,74
2022-11-08T19:33:58.000Z,74
2022-11-08T19:35:24.000Z,74
2022-11-08T19:37:30.000Z,74
2022-11-08T19:40:21.000Z,74
2022-11-08T19:41:48.000Z,75
2022-11-08T19:43:54.000Z,74
2022-11-08T19:45:21.000Z,75
2022-11-08T19:47:27.000Z,75
2022-11-08T19:48:53.000Z,74
2022-11-08T19:51:00.000Z,74
2022-11-08T19:52:26.000Z,74
2022-11-08T19:54:32.000Z,73
2022-11-08T19:55:59.000Z,74
2022-11-08T19:58:05.000Z,74
2022-11-08T19:59:31.000Z,74
2022-11-08T20:01:37.000Z,74
2022-11-08T20:03:04.000Z,72
2022-11-08T20:05:10.000Z,73
2022-11-08T20:06:37.000Z,72
2022-11-08T20:08:43.000Z,72
2022-11-08T20:10:09.000Z,73
2022-11-08T20:12:15.000Z,72
2022-11-08T20:13:42.000Z,72
2022-11-08T20:15:48.000Z,71
2022-11-08T20:18:39.000Z,72
2022-11-08T20:20:05.000Z,71
2022-11-08T20:22:11.000Z,72
2022-11-08T20:23:38.000Z,72
2022-11-08T20:25:44.000Z,72
2022-11-08T20:27:11.000Z,72
2022-11-08T20:29:17.000Z,72
2022-11-08T20:30:43.000Z,73
2022-11-08T20:32:49.000Z,72
2022-11-08T20:34:16.000Z,72
2022-11-08T20:36:23.000Z,72
2022-11-08T20:37:50.000Z,72
2022-11-08T20:39:56.000Z,72
2022-11-08T20:41:22.000Z,73
2022-11-08T20:43:29.000Z,72
2022-11-08T20:44:55.000Z,72
2022-11-08T20:47:01.000Z,73
2022-11-08T20:48:33.000Z,73
2022-11-08T20:50:39.000Z,73
2022-11-08T20:52:05.000Z,73
2022-11-08T20:54:11.000Z,73
2022-11-08T20:57:02.000Z,74
2022-11-08T20:58:29.000Z,74
2022-11-08T21:00:35.000Z,73
2022-11-08T21:02:23.000Z,73
2022-11-08T21:04:29.000Z,74
2022-11-08T21:05:56.000Z,74
2022-11-08T21:08:02.000Z,74
2022-11-08T21:10:23.000Z,74
2022-11-08T21:12:49.000Z,73
2022-11-08T21:14:15.000Z,74
2022-11-08T21:16:21.000Z,74
2022-11-08T21:17:58.000Z,74
2022-11-08T21:20:04.000Z,74
2022-11-08T21:21:30.000Z,75
2022-11-08T21:23:36.000Z,74
2022-11-08T21:25:03.000Z,74
2022-11-08T21:27:09.000Z,74
2022-11-08T21:28:35.000Z,73
2022-11-08T21:30:42.000Z,74
2022-11-08T21:32:08.000Z,74
2022-11-08T21:34:14.000Z,73
2022-11-08T21:37:05.000Z,73
2022-11-08T21:38:32.000Z,74
2022-11-08T21:40:38.000Z,73
2022-11-08T21:42:04.000Z,73
2022-11-08T21:44:11.000Z,73
2022-11-08T21:45:37.000Z,73
2022-11-08T21:47:43.000Z,73
2022-11-08T21:49:10.000Z,72
2022-11-08T21:51:16.000Z,73
2022-11-08T21:52:42.000Z,72
2022-11-08T21:54:48.000Z,73
2022-11-08T21:56:15.000Z,73
2022-11-08T21:58:21.000Z,72
2022-11-08T21:59:48.000Z,73
2022-11-08T22:01:54.000Z,73
2022-11-08T22:03:20.000Z,73
2022-11-08T22:05:26.000Z,72
2022-11-08T22:06:53.000Z,73
2022-11-08T22:08:59.000Z,73
2022-11-08T22:10:25.000Z,74
2022-11-08T22:12:32.000Z,74
2022-11-08T22:15:23.000Z,74
2022-11-08T22:16:49.000Z,74
2022-11-08T22:18:55.000Z,74
2022-11-08T22:20:32.000Z,74
2022-11-08T22:22:38.000Z,74
2022-11-08T22:24:04.000Z,75
2022-11-08T22:26:10.000Z,74
2022-11-08T22:27:37.000Z,75
2022-11-08T22:29:43.000Z,75
2022-11-08T22:31:09.000Z,75
2022-11-08T22:33:16.000Z,75
2022-11-08T22:34:42.000Z,75
2022-11-08T22:36:48.000Z,77
2022-11-08T22:38:15.000Z,77
2022-11-08T22:40:22.000Z,78
2022-11-08T22:41:48.000Z,80
2022-11-08T22:43:54.000Z,80
2022-11-08T22:45:21.000Z,80
2022-11-08T22:47:27.000Z,81
2022-11-08T22:48:53.000Z,81
2022-11-08T22:50:59.000Z,81
2022-11-08T22:53:50.000Z,83
2022-11-08T22:55:17.000Z,85
2022-11-08T22:57:23.000Z,86
2022-11-08T22:58:49.000Z,87
2022-11-08T23:00:56.000Z,87
2022-11-08T23:02:22.000Z,88
2022-11-08T23:04:28.000Z,88
2022-11-08T23:05:55.000Z,89
2022-11-08T23:08:01.000Z,89
2022-11-08T23:09:27.000Z,89
2022-11-08T23:11:34.000Z,90
2022-11-08T23:13:00.000Z,89
2022-11-08T23:15:06.000Z,89
2022-11-08T23:16:33.000Z,89
2022-11-08T23:18:39.000Z,89
2022-11-08T23:20:05.000Z,90
2022-11-08T23:22:11.000Z,90
2022-11-08T23:23:38.000Z,90
2022-11-08T23:25:44.000Z,90
2022-11-08T23:27:10.000Z,90
2022-11-08T23:29:17.000Z,91
2022-11-08T23:32:08.000Z,92
2022-11-08T23:33:34.000Z,93
2022-11-08T23:35:40.000Z,93
2022-11-08T23:37:07.000Z,94
2022-11-08T23:39:13.000Z,95
2022-11-08T23:40:39.000Z,95
2022-11-08T23:42:46.000Z,95
2022-11-08T23:44:12.000Z,96
2022-11-08T23:46:18.000Z,95
2022-11-08T23:47:45.000Z,96
2022-11-08T23:49:51.000Z,95
2022-11-08T23:51:17.000Z,96
2022-11-08T23:53:23.000Z,96
2022-11-08T23:54:50.000Z,96
2022-11-08T23:56:56.000Z,95
2022-11-08T23:58:22.000Z,96
